Time;durP1;ratioP1;P1;durP2;ratioP2;P2;SDS_P1;SDS_P2;PMS_P1;PMS_P2;Temp;Humidity;BMP_temperature;BMP_pressure;BME280_temperature;BME280_humidity;BME280_pressure;Samples;Min_cycle;Max_cycle;Signal;HPM_P1;HPM_P2
2022/01/01 00:00:33;;;;;;;24.80;15.90;;;;;;;;;;5034484;28;20235;-58
2022/01/01 00:02:59;;;;;;;21.07;13.90;;;;;;;;;;5034029;28;20200;-58
2022/01/01 00:05:25;;;;;;;20.03;14.50;;;;;;;;;;5034283;28;20192;-58
2022/01/01 00:07:53;;;;;;;20.83;13.80;;;;;;;;;;5033790;28;20229;-58
2022/01/01 00:10:21;;;;;;;17.27;13.90;;;;;;;;;;5034419;28;20284;-58
2022/01/01 00:12:47;;;;;;;20.80;12.83;;;;;;;;;;5032064;28;20217;-57
2022/01/01 00:15:13;;;;;;;17.50;11.50;;;;;;;;;;5028818;28;20208;-62
2022/01/01 00:17:39;;;;;;;14.73;11.73;;;;;;;;;;5032100;28;20239;-64
2022/01/01 00:20:09;;;;;;;16.73;12.63;;;;;;;;;;5033769;28;20605;-63
2022/01/01 00:22:35;;;;;;;16.77;12.37;;;;;;;;;;5033892;28;20607;-62
2022/01/01 00:25:02;;;;;;;22.37;15.97;;;;;;;;;;5033794;28;20235;-63
2022/01/01 00:27:28;;;;;;;21.30;15.00;;;;;;;;;;5033936;28;20236;-64
2022/01/01 00:29:54;;;;;;;18.80;13.97;;;;;;;;;;5033648;28;20205;-63
2022/01/01 00:32:20;;;;;;;15.80;11.77;;;;;;;;;;5033910;28;20225;-64
2022/01/01 00:34:46;;;;;;;16.00;12.37;;;;;;;;;;5033648;28;20568;-63
2022/01/01 00:37:12;;;;;;;19.43;14.20;;;;;;;;;;5033918;28;20196;-63
2022/01/01 00:39:38;;;;;;;18.17;13.47;;;;;;;;;;5033468;28;20201;-62
2022/01/01 00:42:06;;;;;;;19.40;14.97;;;;;;;;;;5033676;28;20270;-62
2022/01/01 00:44:32;;;;;;;20.97;12.97;;;;;;;;;;5033515;28;20200;-63
2022/01/01 00:46:58;;;;;;;20.77;14.13;;;;;;;;;;5032134;28;20256;-62
2022/01/01 00:49:24;;;;;;;24.90;14.33;;;;;;;;;;5033278;28;20251;-62
2022/01/01 00:51:50;;;;;;;18.30;13.40;;;;;;;;;;5033372;28;20305;-63
2022/01/01 00:54:16;;;;;;;18.23;13.90;;;;;;;;;;5033561;28;20629;-61
2022/01/01 00:56:43;;;;;;;20.20;13.93;;;;;;;;;;5033143;28;20236;-62
2022/01/01 00:59:10;;;;;;;19.37;13.57;;;;;;;;;;5033300;28;20276;-63
2022/01/01 01:01:37;;;;;;;20.63;13.63;;;;;;;;;;5033257;28;20209;-63
2022/01/01 01:04:03;;;;;;;21.33;13.77;;;;;;;;;;5033062;28;20615;-62
2022/01/01 01:06:29;;;;;;;19.63;14.20;;;;;;;;;;5032959;28;20801;-63
2022/01/01 01:08:58;;;;;;;19.30;13.67;;;;;;;;;;5033076;28;20208;-62
2022/01/01 01:11:24;;;;;;;20.57;14.43;;;;;;;;;;5032549;28;20262;-63
2022/01/01 01:13:57;;;;;;;21.00;14.97;;;;;;;;;;5030857;28;20203;-64
2022/01/01 01:16:25;;;;;;;20.87;14.40;;;;;;;;;;5030907;28;20611;-65
2022/01/01 01:18:53;;;;;;;21.80;13.37;;;;;;;;;;5032842;28;20209;-65
2022/01/01 01:21:19;;;;;;;19.47;13.37;;;;;;;;;;5032924;28;20204;-65
2022/01/01 01:23:47;;;;;;;19.43;14.03;;;;;;;;;;5033241;28;20287;-65
2022/01/01 01:26:13;;;;;;;23.40;14.53;;;;;;;;;;5032455;28;20239;-65
2022/01/01 01:28:46;;;;;;;24.27;15.27;;;;;;;;;;5031985;28;20209;-65
2022/01/01 01:31:16;;;;;;;22.90;13.50;;;;;;;;;;5032641;28;20197;-66
2022/01/01 01:33:43;;;;;;;25.90;13.43;;;;;;;;;;5032659;28;20197;-65
2022/01/01 01:36:09;;;;;;;24.97;14.80;;;;;;;;;;5032884;28;20308;-67
2022/01/01 01:38:36;;;;;;;20.13;13.83;;;;;;;;;;5032466;28;20197;-66
2022/01/01 01:41:03;;;;;;;22.77;14.03;;;;;;;;;;5032627;28;20201;-65
2022/01/01 01:43:29;;;;;;;21.77;13.87;;;;;;;;;;5032349;28;20788;-65
2022/01/01 01:45:57;;;;;;;22.13;14.33;;;;;;;;;;5032551;28;20674;-67
2022/01/01 01:48:23;;;;;;;22.53;13.13;;;;;;;;;;5032521;28;20200;-66
2022/01/01 01:50:59;;;;;;;22.53;14.03;;;;;;;;;;5032737;28;20307;-65
2022/01/01 01:53:26;;;;;;;23.77;15.27;;;;;;;;;;5030536;28;20270;-66
2022/01/01 01:55:52;;;;;;;20.83;13.97;;;;;;;;;;5032149;28;20232;-66
2022/01/01 01:58:18;;;;;;;18.93;13.57;;;;;;;;;;5032484;28;20197;-65
2022/01/01 02:03:22;;;;;;;24.10;14.70;;;;;;;;;;5032553;28;20196;-64
2022/01/01 02:05:48;;;;;;;20.77;14.23;;;;;;;;;;5032337;28;20205;-66
2022/01/01 02:08:17;;;;;;;20.83;13.20;;;;;;;;;;5032295;28;20201;-66
2022/01/01 02:10:43;;;;;;;24.50;14.23;;;;;;;;;;5032369;28;20263;-65
2022/01/01 02:13:18;;;;;;;24.70;14.83;;;;;;;;;;5032216;28;20205;-65
2022/01/01 02:18:16;;;;;;;22.10;14.03;;;;;;;;;;5031887;28;20281;-65
2022/01/01 02:20:49;;;;;;;26.03;15.00;;;;;;;;;;5032066;28;20192;-66
2022/01/01 02:23:15;;;;;;;23.73;13.20;;;;;;;;;;5032300;28;20211;-65
2022/01/01 02:25:41;;;;;;;25.23;14.37;;;;;;;;;;5032143;28;20200;-66
2022/01/01 02:28:07;;;;;;;24.03;13.23;;;;;;;;;;5031937;28;20239;-65
2022/01/01 02:30:33;;;;;;;19.03;12.63;;;;;;;;;;5032214;28;20201;-66
2022/01/01 02:32:59;;;;;;;20.07;13.00;;;;;;;;;;5032021;28;20199;-66
2022/01/01 02:35:25;;;;;;;24.73;13.70;;;;;;;;;;5032093;28;20223;-66
2022/01/01 02:37:53;;;;;;;20.60;14.00;;;;;;;;;;5032039;28;20200;-67
2022/01/01 02:40:19;;;;;;;25.77;14.43;;;;;;;;;;5031815;28;20200;-66
2022/01/01 02:42:45;;;;;;;22.60;14.13;;;;;;;;;;5031866;28;20557;-66
2022/01/01 02:45:13;;;;;;;24.90;14.13;;;;;;;;;;5031825;28;20697;-66
2022/01/01 02:47:39;;;;;;;24.70;14.90;;;;;;;;;;5031655;28;20231;-66
2022/01/01 02:50:06;;;;;;;25.03;13.77;;;;;;;;;;5031672;28;20193;-66
2022/01/01 02:52:32;;;;;;;22.43;15.03;;;;;;;;;;5031789;28;20193;-65
2022/01/01 02:54:59;;;;;;;21.87;14.70;;;;;;;;;;5031504;28;20256;-66
2022/01/01 02:57:25;;;;;;;24.27;14.87;;;;;;;;;;5031652;28;20266;-66
2022/01/01 02:59:51;;;;;;;27.37;15.83;;;;;;;;;;5031597;28;20715;-65
2022/01/01 03:02:17;;;;;;;26.13;15.63;;;;;;;;;;5031789;28;20195;-65
2022/01/01 03:04:43;;;;;;;25.17;14.47;;;;;;;;;;5031836;28;20197;-65
2022/01/01 03:07:09;;;;;;;22.93;14.63;;;;;;;;;;5031697;28;20699;-65
2022/01/01 03:09:35;;;;;;;28.27;15.30;;;;;;;;;;5031761;28;20200;-65
2022/01/01 03:12:03;;;;;;;28.63;16.17;;;;;;;;;;5031695;28;20613;-66
2022/01/01 03:14:29;;;;;;;25.60;15.67;;;;;;;;;;5031699;28;20205;-66
2022/01/01 03:16:55;;;;;;;26.67;15.37;;;;;;;;;;5028163;28;20239;-67
2022/01/01 03:19:22;;;;;;;24.40;15.27;;;;;;;;;;5031684;28;20613;-66
2022/01/01 03:21:48;;;;;;;27.53;16.27;;;;;;;;;;5031589;28;20594;-66
2022/01/01 03:24:14;;;;;;;27.13;16.00;;;;;;;;;;5031484;28;20212;-66
2022/01/01 03:26:40;;;;;;;23.93;16.47;;;;;;;;;;5031638;28;20232;-66
2022/01/01 03:29:07;;;;;;;28.63;16.90;;;;;;;;;;5031393;28;20204;-66
2022/01/01 03:31:34;;;;;;;22.33;16.50;;;;;;;;;;5031752;28;20204;-66
2022/01/01 03:34:00;;;;;;;32.07;16.93;;;;;;;;;;5031394;28;20201;-67
2022/01/01 03:36:26;;;;;;;27.33;18.13;;;;;;;;;;5031263;28;20814;-66
2022/01/01 03:38:52;;;;;;;27.23;17.57;;;;;;;;;;5031442;28;20201;-67
2022/01/01 03:41:18;;;;;;;27.93;17.70;;;;;;;;;;5031530;28;20272;-67
2022/01/01 03:43:44;;;;;;;31.50;18.77;;;;;;;;;;5031351;28;20204;-67
2022/01/01 03:46:11;;;;;;;28.50;19.20;;;;;;;;;;5031183;28;20296;-68
2022/01/01 03:48:37;;;;;;;35.00;20.30;;;;;;;;;;5031313;28;20251;-68
2022/01/01 03:51:03;;;;;;;32.90;21.93;;;;;;;;;;5031309;28;20201;-66
2022/01/01 03:53:29;;;;;;;29.53;20.57;;;;;;;;;;5034637;28;20220;-66
2022/01/01 03:55:55;;;;;;;32.33;21.40;;;;;;;;;;5034541;28;20237;-66
2022/01/01 03:58:21;;;;;;;36.70;22.10;;;;;;;;;;5034436;28;20200;-65
2022/01/01 04:00:47;;;;;;;35.90;23.33;;;;;;;;;;5034985;28;20299;-66
2022/01/01 04:03:16;;;;;;;37.10;23.00;;;;;;;;;;5034619;28;20189;-68
2022/01/01 04:05:43;;;;;;;32.50;22.57;;;;;;;;;;5034629;28;20205;-66
2022/01/01 04:08:09;;;;;;;37.93;25.43;;;;;;;;;;5034285;28;20282;-67
2022/01/01 04:10:35;;;;;;;35.67;23.80;;;;;;;;;;5034514;28;20697;-67
2022/01/01 04:13:02;;;;;;;33.20;23.40;;;;;;;;;;5034432;28;20603;-67
2022/01/01 04:15:28;;;;;;;36.63;23.00;;;;;;;;;;5034437;28;20217;-67
2022/01/01 04:18:00;;;;;;;35.20;22.80;;;;;;;;;;5034353;28;20212;-67
2022/01/01 04:20:27;;;;;;;36.03;23.10;;;;;;;;;;5034510;28;20204;-67
2022/01/01 04:22:54;;;;;;;38.53;22.33;;;;;;;;;;5034253;28;20236;-66
2022/01/01 04:25:20;;;;;;;34.50;22.40;;;;;;;;;;5034286;28;20291;-66
2022/01/01 04:27:47;;;;;;;29.10;21.07;;;;;;;;;;5034196;28;20279;-67
2022/01/01 04:30:12;;;;;;;34.03;22.60;;;;;;;;;;5034039;28;20201;-67
2022/01/01 04:32:39;;;;;;;34.33;21.83;;;;;;;;;;5034189;28;20204;-67
2022/01/01 04:35:05;;;;;;;35.10;22.60;;;;;;;;;;5034044;28;20201;-67
2022/01/01 04:37:33;;;;;;;38.20;23.67;;;;;;;;;;5034257;28;20189;-68
2022/01/01 04:39:59;;;;;;;31.10;21.93;;;;;;;;;;5034052;28;20208;-68
2022/01/01 04:42:25;;;;;;;37.00;21.43;;;;;;;;;;5034051;28;20205;-68
2022/01/01 04:44:51;;;;;;;34.70;21.63;;;;;;;;;;5033954;28;20566;-67
2022/01/01 04:47:17;;;;;;;32.67;21.37;;;;;;;;;;5033737;28;20733;-67
2022/01/01 04:49:43;;;;;;;30.40;19.80;;;;;;;;;;5033934;28;20284;-67
2022/01/01 04:52:09;;;;;;;33.33;20.67;;;;;;;;;;5033705;28;20247;-67
2022/01/01 04:54:40;;;;;;;32.33;20.73;;;;;;;;;;5033597;28;20691;-67
2022/01/01 04:57:07;;;;;;;31.40;18.67;;;;;;;;;;5033571;28;20280;-67
2022/01/01 04:59:33;;;;;;;31.40;19.97;;;;;;;;;;5033799;28;20232;-66
2022/01/01 05:01:59;;;;;;;32.90;19.83;;;;;;;;;;5033605;28;20201;-66
2022/01/01 05:04:25;;;;;;;29.57;19.57;;;;;;;;;;5033471;28;20270;-66
2022/01/01 05:06:52;;;;;;;32.40;19.33;;;;;;;;;;5033449;28;20247;-67
2022/01/01 05:09:18;;;;;;;31.03;19.23;;;;;;;;;;5033350;28;20659;-67
2022/01/01 05:11:48;;;;;;;31.63;17.77;;;;;;;;;;5033299;28;20734;-67
2022/01/01 05:14:14;;;;;;;33.10;19.30;;;;;;;;;;5033299;28;20651;-67
2022/01/01 05:16:41;;;;;;;30.43;18.57;;;;;;;;;;5033412;28;20193;-66
2022/01/01 05:19:07;;;;;;;31.20;18.67;;;;;;;;;;5033262;28;20200;-66
2022/01/01 05:21:35;;;;;;;35.07;19.33;;;;;;;;;;5033449;28;20208;-67
2022/01/01 05:24:02;;;;;;;33.57;19.63;;;;;;;;;;5033150;28;20197;-67
2022/01/01 05:26:28;;;;;;;29.10;17.77;;;;;;;;;;5033123;28;20253;-66
2022/01/01 05:28:55;;;;;;;29.80;19.00;;;;;;;;;;5033022;28;20779;-67
2022/01/01 05:31:21;;;;;;;32.83;18.20;;;;;;;;;;5029455;28;20255;-67
2022/01/01 05:33:47;;;;;;;27.60;18.07;;;;;;;;;;5032638;28;20216;-67
2022/01/01 05:36:13;;;;;;;35.87;19.47;;;;;;;;;;5032722;28;20561;-67
2022/01/01 05:38:40;;;;;;;32.53;19.87;;;;;;;;;;5032911;28;20197;-67
2022/01/01 05:41:06;;;;;;;28.50;18.50;;;;;;;;;;5032755;28;20217;-67
2022/01/01 05:43:31;;;;;;;37.17;20.23;;;;;;;;;;5032895;28;20240;-67
2022/01/01 05:45:59;;;;;;;28.10;18.77;;;;;;;;;;5032710;28;20213;-67
2022/01/01 05:48:25;;;;;;;26.97;18.50;;;;;;;;;;5032662;28;20275;-66
2022/01/01 05:50:51;;;;;;;33.83;19.57;;;;;;;;;;5032752;28;20217;-66
2022/01/01 05:53:17;;;;;;;34.97;19.27;;;;;;;;;;5032440;28;20602;-67
2022/01/01 05:55:43;;;;;;;32.43;19.40;;;;;;;;;;5031128;28;20243;-67
2022/01/01 05:58:09;;;;;;;33.77;20.00;;;;;;;;;;5032501;28;20228;-67
2022/01/01 06:00:36;;;;;;;32.43;19.47;;;;;;;;;;5032582;28;20204;-66
2022/01/01 06:03:03;;;;;;;37.83;20.90;;;;;;;;;;5032468;28;20212;-69
2022/01/01 06:05:29;;;;;;;30.37;20.80;;;;;;;;;;5032304;28;20690;-66
2022/01/01 06:07:56;;;;;;;36.27;21.00;;;;;;;;;;5032318;28;20236;-67
2022/01/01 06:10:22;;;;;;;38.43;22.77;;;;;;;;;;5032157;28;20196;-67
2022/01/01 06:12:48;;;;;;;33.53;22.77;;;;;;;;;;5032379;28;20582;-67
2022/01/01 06:15:14;;;;;;;35.73;23.07;;;;;;;;;;5031852;28;20235;-66
2022/01/01 06:17:40;;;;;;;35.77;22.77;;;;;;;;;;5032004;28;20246;-66
2022/01/01 06:20:08;;;;;;;39.77;22.37;;;;;;;;;;5032092;28;20232;-67
2022/01/01 06:22:34;;;;;;;41.03;23.57;;;;;;;;;;5032052;28;20284;-66
2022/01/01 06:25:00;;;;;;;39.67;23.33;;;;;;;;;;5032168;28;20610;-66
2022/01/01 06:27:26;;;;;;;40.50;24.00;;;;;;;;;;5031653;28;20225;-66
2022/01/01 06:29:52;;;;;;;35.30;22.43;;;;;;;;;;5031799;28;20208;-66
2022/01/01 06:32:18;;;;;;;41.17;23.07;;;;;;;;;;5031954;28;20201;-66
2022/01/01 06:34:44;;;;;;;32.83;21.27;;;;;;;;;;5032026;28;20208;-66
2022/01/01 06:37:11;;;;;;;42.83;22.93;;;;;;;;;;5031849;28;20204;-66
2022/01/01 06:39:37;;;;;;;39.33;23.37;;;;;;;;;;5032047;28;20279;-66
2022/01/01 06:42:04;;;;;;;33.33;22.13;;;;;;;;;;5031915;28;20739;-66
2022/01/01 06:44:30;;;;;;;39.63;24.37;;;;;;;;;;5031742;28;20205;-66
2022/01/01 06:46:56;;;;;;;38.97;22.53;;;;;;;;;;5031703;28;20679;-66
2022/01/01 06:49:22;;;;;;;41.80;22.87;;;;;;;;;;5031745;28;20196;-66
2022/01/01 06:51:48;;;;;;;35.67;22.57;;;;;;;;;;5031737;28;20203;-66
2022/01/01 06:54:15;;;;;;;37.00;22.40;;;;;;;;;;5031755;28;20703;-66
2022/01/01 06:56:41;;;;;;;36.83;23.27;;;;;;;;;;5031547;28;20235;-66
2022/01/01 06:59:09;;;;;;;31.63;22.10;;;;;;;;;;5031421;28;20576;-65
2022/01/01 07:01:35;;;;;;;32.17;21.93;;;;;;;;;;5031512;28;20244;-66
2022/01/01 07:04:01;;;;;;;35.33;21.43;;;;;;;;;;5031716;28;20258;-67
2022/01/01 07:06:27;;;;;;;38.27;22.80;;;;;;;;;;5031579;28;20216;-65
2022/01/01 07:08:53;;;;;;;36.43;22.47;;;;;;;;;;5031698;28;20671;-67
2022/01/01 07:11:21;;;;;;;38.90;23.23;;;;;;;;;;5031755;28;20250;-66
2022/01/01 07:13:46;;;;;;;37.90;23.27;;;;;;;;;;5031562;28;20205;-66
2022/01/01 07:16:13;;;;;;;35.33;22.63;;;;;;;;;;5031487;28;20201;-66
2022/01/01 07:18:38;;;;;;;31.83;22.77;;;;;;;;;;5031615;28;20262;-66
2022/01/01 07:21:04;;;;;;;39.13;23.70;;;;;;;;;;5031665;28;20197;-66
2022/01/01 07:23:30;;;;;;;37.20;22.30;;;;;;;;;;5031564;28;20204;-66
2022/01/01 07:25:56;;;;;;;37.53;22.30;;;;;;;;;;5031685;28;20193;-65
2022/01/01 07:28:24;;;;;;;37.77;24.03;;;;;;;;;;5034654;28;20221;-66
2022/01/01 07:30:50;;;;;;;38.73;22.80;;;;;;;;;;5035424;28;20201;-66
2022/01/01 07:33:16;;;;;;;34.03;23.93;;;;;;;;;;5035264;28;20219;-66
2022/01/01 07:35:42;;;;;;;32.87;22.37;;;;;;;;;;5035219;28;20205;-66
2022/01/01 07:38:08;;;;;;;37.77;23.27;;;;;;;;;;5035208;28;20196;-67
2022/01/01 07:40:35;;;;;;;36.20;23.37;;;;;;;;;;5035119;28;20200;-66
2022/01/01 07:43:01;;;;;;;34.67;24.47;;;;;;;;;;5035052;28;20205;-67
2022/01/01 07:45:28;;;;;;;41.30;24.33;;;;;;;;;;5034984;28;20204;-67
2022/01/01 07:47:54;;;;;;;37.80;24.30;;;;;;;;;;5034984;28;20227;-67
2022/01/01 07:50:20;;;;;;;40.87;23.40;;;;;;;;;;5034849;28;20201;-67
2022/01/01 07:52:46;;;;;;;41.93;25.40;;;;;;;;;;5034938;28;20694;-66
2022/01/01 07:55:12;;;;;;;43.17;24.53;;;;;;;;;;5034205;28;20244;-66
2022/01/01 07:57:38;;;;;;;35.27;23.70;;;;;;;;;;5034364;28;20667;-66
2022/01/01 08:00:07;;;;;;;40.67;25.80;;;;;;;;;;5034837;28;20296;-66
2022/01/01 08:02:39;;;;;;;34.43;23.33;;;;;;;;;;5034482;28;20208;-66
2022/01/01 08:05:06;;;;;;;38.63;24.17;;;;;;;;;;5034686;28;20193;-66
2022/01/01 08:07:32;;;;;;;40.93;25.73;;;;;;;;;;5034434;28;20247;-66
2022/01/01 08:09:58;;;;;;;36.67;24.13;;;;;;;;;;5034619;28;20671;-66
2022/01/01 08:12:24;;;;;;;40.67;25.17;;;;;;;;;;5034320;28;20262;-66
2022/01/01 08:14:50;;;;;;;36.40;25.37;;;;;;;;;;5034598;28;20188;-67
2022/01/01 08:17:16;;;;;;;37.83;25.50;;;;;;;;;;5034331;28;20729;-66
2022/01/01 08:19:43;;;;;;;39.63;25.70;;;;;;;;;;5034223;28;20310;-66
2022/01/01 08:22:12;;;;;;;37.40;25.37;;;;;;;;;;5034393;28;20209;-66
2022/01/01 08:24:38;;;;;;;37.17;24.77;;;;;;;;;;5034306;28;20201;-66
2022/01/01 08:27:04;;;;;;;39.27;24.77;;;;;;;;;;5034251;28;20216;-66
2022/01/01 08:29:31;;;;;;;37.60;24.30;;;;;;;;;;5034112;28;20228;-66
2022/01/01 08:31:57;;;;;;;39.97;24.07;;;;;;;;;;5034186;28;20251;-65
2022/01/01 08:34:23;;;;;;;39.40;25.00;;;;;;;;;;5034113;28;20659;-65
2022/01/01 08:36:51;;;;;;;37.97;24.13;;;;;;;;;;5034093;28;20717;-66
2022/01/01 08:39:17;;;;;;;35.67;23.67;;;;;;;;;;5033744;28;20272;-67
2022/01/01 08:41:43;;;;;;;39.80;24.07;;;;;;;;;;5033650;28;20296;-66
2022/01/01 08:44:09;;;;;;;36.40;22.63;;;;;;;;;;5033882;28;20339;-65
2022/01/01 08:46:35;;;;;;;33.80;21.80;;;;;;;;;;5033712;28;20282;-66
2022/01/01 08:49:03;;;;;;;37.43;23.37;;;;;;;;;;5033869;28;20674;-66
2022/01/01 08:51:29;;;;;;;35.77;22.67;;;;;;;;;;5033714;28;20667;-66
2022/01/01 08:53:57;;;;;;;33.10;22.43;;;;;;;;;;5033449;28;20865;-66
2022/01/01 08:56:23;;;;;;;33.80;22.63;;;;;;;;;;5033518;28;20241;-66
2022/01/01 08:58:49;;;;;;;37.87;23.27;;;;;;;;;;5033593;28;20200;-66
2022/01/01 09:01:15;;;;;;;32.83;23.33;;;;;;;;;;5033742;28;20239;-66
2022/01/01 09:03:41;;;;;;;36.03;22.70;;;;;;;;;;5033567;28;20201;-65
2022/01/01 09:06:07;;;;;;;34.63;22.63;;;;;;;;;;5033465;28;20216;-66
2022/01/01 09:08:34;;;;;;;33.50;20.53;;;;;;;;;;5033335;28;20302;-65
2022/01/01 09:11:01;;;;;;;36.60;22.47;;;;;;;;;;5033527;28;20247;-66
2022/01/01 09:13:27;;;;;;;33.53;22.13;;;;;;;;;;5033359;28;20208;-66
2022/01/01 09:15:53;;;;;;;32.47;22.27;;;;;;;;;;5033408;28;20203;-65
2022/01/01 09:18:19;;;;;;;31.93;22.50;;;;;;;;;;5033337;28;20177;-66
2022/01/01 09:20:45;;;;;;;29.80;21.43;;;;;;;;;;5033189;28;20201;-66
2022/01/01 09:23:13;;;;;;;33.07;21.60;;;;;;;;;;5033140;28;20204;-65
2022/01/01 09:25:39;;;;;;;31.93;22.30;;;;;;;;;;5032988;28;20201;-65
2022/01/01 09:28:06;;;;;;;36.70;21.70;;;;;;;;;;5032953;28;20230;-65
2022/01/01 09:30:32;;;;;;;33.43;21.83;;;;;;;;;;5032989;28;20193;-65
2022/01/01 09:32:58;;;;;;;33.37;21.00;;;;;;;;;;5032934;28;20203;-65
2022/01/01 09:35:24;;;;;;;31.37;21.87;;;;;;;;;;5032712;28;20698;-65
2022/01/01 09:37:50;;;;;;;30.07;20.23;;;;;;;;;;5032924;28;20304;-66
2022/01/01 09:40:16;;;;;;;29.90;20.60;;;;;;;;;;5032905;28;20204;-65
2022/01/01 09:42:43;;;;;;;32.63;21.67;;;;;;;;;;5032673;28;20207;-65
2022/01/01 09:45:11;;;;;;;31.70;20.77;;;;;;;;;;5032704;28;20189;-66
2022/01/01 09:47:37;;;;;;;30.13;20.33;;;;;;;;;;5032496;28;20292;-65
2022/01/01 09:50:05;;;;;;;31.57;20.23;;;;;;;;;;5031603;28;20200;-65
2022/01/01 09:52:31;;;;;;;31.63;20.53;;;;;;;;;;5031457;28;20674;-64
2022/01/01 09:54:57;;;;;;;31.87;21.50;;;;;;;;;;5032004;28;21561;-65
2022/01/01 09:57:23;;;;;;;30.63;20.10;;;;;;;;;;5031738;28;20298;-65
2022/01/01 09:59:49;;;;;;;35.93;20.63;;;;;;;;;;5031899;28;20201;-65
2022/01/01 10:02:16;;;;;;;29.93;19.60;;;;;;;;;;5032450;28;20703;-65
2022/01/01 10:04:43;;;;;;;31.63;19.93;;;;;;;;;;5032125;28;20226;-64
2022/01/01 10:07:09;;;;;;;30.97;19.70;;;;;;;;;;5032180;28;20683;-64
2022/01/01 10:09:37;;;;;;;32.60;19.93;;;;;;;;;;5032452;28;20570;-64
2022/01/01 10:12:06;;;;;;;31.30;18.80;;;;;;;;;;5032556;28;20228;-64
2022/01/01 10:14:35;;;;;;;34.33;18.63;;;;;;;;;;5031932;28;20254;-64
2022/01/01 10:17:02;;;;;;;34.37;18.43;;;;;;;;;;5032041;28;20566;-64
2022/01/01 10:19:31;;;;;;;30.23;18.37;;;;;;;;;;5031998;28;20670;-65
2022/01/01 10:21:58;;;;;;;25.13;16.53;;;;;;;;;;5031776;28;20222;-64
2022/01/01 10:24:40;;;;;;;27.20;16.23;;;;;;;;;;5031898;28;20225;-64
2022/01/01 10:29:56;;;;;;;24.93;14.50;;;;;;;;;;5031811;28;20188;-65
2022/01/01 10:32:23;;;;;;;24.53;14.33;;;;;;;;;;5031837;28;20202;-65
2022/01/01 10:34:50;;;;;;;24.23;14.30;;;;;;;;;;5032040;28;20203;-66
2022/01/01 10:37:16;;;;;;;20.37;13.40;;;;;;;;;;5032037;28;20272;-65
2022/01/01 10:39:48;;;;;;;19.40;13.30;;;;;;;;;;5031808;28;20205;-66
2022/01/01 10:42:14;;;;;;;23.30;13.37;;;;;;;;;;5031728;28;20299;-65
2022/01/01 10:44:41;;;;;;;18.80;12.27;;;;;;;;;;5031468;28;20646;-65
2022/01/01 10:47:16;;;;;;;20.67;13.03;;;;;;;;;;5031434;28;20586;-64
2022/01/01 10:52:17;;;;;;;19.23;12.53;;;;;;;;;;5031799;28;20565;-65
2022/01/01 10:54:50;;;;;;;19.30;11.67;;;;;;;;;;5031404;28;20239;-62
2022/01/01 10:57:21;;;;;;;22.70;12.20;;;;;;;;;;5031733;28;20207;-64
2022/01/01 10:59:47;;;;;;;18.50;11.07;;;;;;;;;;5031803;28;20205;-62
2022/01/01 11:02:13;;;;;;;17.50;10.20;;;;;;;;;;5034824;28;20262;-65
2022/01/01 11:04:39;;;;;;;19.03;10.67;;;;;;;;;;5035671;28;20201;-70
2022/01/01 11:07:06;;;;;;;16.83;10.83;;;;;;;;;;5035529;28;20335;-62
2022/01/01 11:09:34;;;;;;;17.77;10.27;;;;;;;;;;5034971;28;20215;-67
2022/01/01 11:12:03;;;;;;;15.70;9.50;;;;;;;;;;5035564;28;20201;-69
2022/01/01 11:14:30;;;;;;;17.20;9.97;;;;;;;;;;5035322;28;20204;-67
2022/01/01 11:16:56;;;;;;;17.77;8.93;;;;;;;;;;5035182;28;20215;-67
2022/01/01 11:19:24;;;;;;;20.43;10.73;;;;;;;;;;5033767;28;20595;-64
2022/01/01 11:21:50;;;;;;;14.30;9.37;;;;;;;;;;5035075;28;20639;-64
2022/01/01 11:24:16;;;;;;;17.23;9.30;;;;;;;;;;5034538;28;20332;-64
2022/01/01 11:26:45;;;;;;;15.97;9.03;;;;;;;;;;5035125;28;20244;-63
2022/01/01 11:29:13;;;;;;;15.10;8.97;;;;;;;;;;5034587;28;20205;-63
2022/01/01 11:31:40;;;;;;;14.87;8.83;;;;;;;;;;5034641;28;20212;-63
2022/01/01 11:34:07;;;;;;;17.30;8.30;;;;;;;;;;5034987;28;20201;-64
2022/01/01 11:36:34;;;;;;;17.13;8.40;;;;;;;;;;5034699;28;20200;-64
2022/01/01 11:39:03;;;;;;;17.70;8.47;;;;;;;;;;5035133;28;20211;-64
2022/01/01 11:41:37;;;;;;;14.97;8.10;;;;;;;;;;5034349;28;20203;-63
2022/01/01 11:44:25;;;;;;;15.80;8.23;;;;;;;;;;5034335;28;20201;-64
2022/01/01 11:46:58;;;;;;;12.47;7.70;;;;;;;;;;5035090;28;20331;-64
2022/01/01 11:49:26;;;;;;;13.27;7.60;;;;;;;;;;5031267;28;20200;-63
2022/01/01 11:51:52;;;;;;;12.53;8.07;;;;;;;;;;5034305;28;20204;-63
2022/01/01 11:54:22;;;;;;;12.30;7.60;;;;;;;;;;5034360;28;20593;-64
2022/01/01 11:56:59;;;;;;;12.60;7.50;;;;;;;;;;5034207;28;20298;-63
2022/01/01 11:59:27;;;;;;;12.77;6.83;;;;;;;;;;5034827;28;20203;-64
2022/01/01 12:01:54;;;;;;;13.73;6.97;;;;;;;;;;5034869;28;20208;-62
2022/01/01 12:04:24;;;;;;;10.20;6.60;;;;;;;;;;5034624;28;20204;-64
2022/01/01 12:06:52;;;;;;;11.83;6.73;;;;;;;;;;5034462;28;20199;-63
2022/01/01 12:09:18;;;;;;;14.33;6.80;;;;;;;;;;5034829;28;20204;-64
2022/01/01 12:11:49;;;;;;;15.70;6.80;;;;;;;;;;5034403;28;20212;-64
2022/01/01 12:14:20;;;;;;;11.50;6.20;;;;;;;;;;5034333;28;20292;-64
2022/01/01 12:16:52;;;;;;;13.03;6.83;;;;;;;;;;5034680;28;20284;-63
2022/01/01 12:19:20;;;;;;;9.83;5.97;;;;;;;;;;5034667;28;20209;-63
2022/01/01 12:21:47;;;;;;;14.03;6.60;;;;;;;;;;5034380;28;20193;-64
2022/01/01 12:24:17;;;;;;;10.70;6.00;;;;;;;;;;5034619;28;20207;-65
2022/01/01 12:26:50;;;;;;;14.40;6.50;;;;;;;;;;5034083;28;20340;-64
2022/01/01 12:29:21;;;;;;;13.07;6.93;;;;;;;;;;5034367;28;20201;-64
2022/01/01 12:31:55;;;;;;;12.97;6.97;;;;;;;;;;5034227;28;20201;-64
2022/01/01 12:34:22;;;;;;;13.53;7.30;;;;;;;;;;5034159;28;20205;-64
2022/01/01 12:36:53;;;;;;;12.50;6.97;;;;;;;;;;5034242;28;20205;-63
2022/01/01 12:39:19;;;;;;;11.57;7.23;;;;;;;;;;5034010;28;20197;-63
2022/01/01 12:41:45;;;;;;;14.70;7.47;;;;;;;;;;5033887;28;20280;-64
2022/01/01 12:44:16;;;;;;;12.87;7.30;;;;;;;;;;5034195;28;20197;-63
2022/01/01 12:46:45;;;;;;;11.57;6.90;;;;;;;;;;5032805;28;20663;-64
2022/01/01 12:49:13;;;;;;;16.13;7.07;;;;;;;;;;5034044;28;20215;-65
2022/01/01 12:51:39;;;;;;;13.83;7.20;;;;;;;;;;5033560;28;20263;-64
2022/01/01 12:54:06;;;;;;;10.67;6.73;;;;;;;;;;5033732;28;20303;-64
2022/01/01 12:56:33;;;;;;;13.57;6.90;;;;;;;;;;5033930;28;20275;-64
2022/01/01 12:59:00;;;;;;;10.77;6.40;;;;;;;;;;5033752;28;20189;-64
2022/01/01 13:01:27;;;;;;;11.13;6.67;;;;;;;;;;5033805;28;20200;-63
2022/01/01 13:03:54;;;;;;;14.03;7.77;;;;;;;;;;5033594;28;20209;-64
2022/01/01 13:06:22;;;;;;;12.37;7.13;;;;;;;;;;5032728;28;20291;-63
2022/01/01 13:08:48;;;;;;;10.37;6.57;;;;;;;;;;5033338;28;20247;-64
2022/01/01 13:11:15;;;;;;;11.37;6.83;;;;;;;;;;5033704;28;20279;-64
2022/01/01 13:13:41;;;;;;;13.80;6.60;;;;;;;;;;5033436;28;20196;-64
2022/01/01 13:16:07;;;;;;;12.97;6.90;;;;;;;;;;5033483;28;20717;-65
2022/01/01 13:18:33;;;;;;;13.53;6.63;;;;;;;;;;5033103;28;20686;-64
2022/01/01 13:20:59;;;;;;;16.30;6.97;;;;;;;;;;5033109;28;20196;-65
2022/01/01 13:23:26;;;;;;;13.27;6.87;;;;;;;;;;5031864;28;20262;-64
2022/01/01 13:25:53;;;;;;;11.13;6.37;;;;;;;;;;5033007;28;20213;-64
2022/01/01 13:28:19;;;;;;;13.73;6.63;;;;;;;;;;5033100;28;20232;-65
2022/01/01 13:30:45;;;;;;;12.23;6.70;;;;;;;;;;5032980;28;20212;-64
2022/01/01 13:33:14;;;;;;;12.53;6.57;;;;;;;;;;5032875;28;20212;-64
2022/01/01 13:35:47;;;;;;;12.93;6.30;;;;;;;;;;5032615;28;20189;-64
2022/01/01 13:38:14;;;;;;;12.53;6.30;;;;;;;;;;5032664;28;20231;-64
2022/01/01 13:40:43;;;;;;;11.90;6.00;;;;;;;;;;5032112;28;20605;-65
2022/01/01 13:43:10;;;;;;;10.40;5.63;;;;;;;;;;5032553;28;20231;-65
2022/01/01 13:45:36;;;;;;;8.43;5.17;;;;;;;;;;5032672;28;20193;-63
2022/01/01 13:48:04;;;;;;;9.27;5.20;;;;;;;;;;5032508;28;20290;-62
2022/01/01 13:50:38;;;;;;;12.93;6.17;;;;;;;;;;5032769;28;20204;-63
2022/01/01 13:53:06;;;;;;;11.87;5.93;;;;;;;;;;5032547;28;20308;-63
2022/01/01 13:55:33;;;;;;;13.87;5.77;;;;;;;;;;5032356;28;20279;-60
2022/01/01 13:58:02;;;;;;;9.33;5.13;;;;;;;;;;5032342;28;20197;-59
2022/01/01 14:00:28;;;;;;;12.77;7.83;;;;;;;;;;5032295;28;20601;-59
2022/01/01 14:02:54;;;;;;;11.20;5.83;;;;;;;;;;5032010;28;20201;-59
2022/01/01 14:05:22;;;;;;;11.03;5.90;;;;;;;;;;5032278;28;20633;-61
2022/01/01 14:07:48;;;;;;;8.90;4.73;;;;;;;;;;5032175;28;20245;-60
2022/01/01 14:10:15;;;;;;;8.60;4.63;;;;;;;;;;5032520;28;20209;-64
2022/01/01 14:12:42;;;;;;;13.40;5.63;;;;;;;;;;5031995;28;20228;-61
2022/01/01 14:15:12;;;;;;;10.03;5.83;;;;;;;;;;5032336;28;20200;-60
2022/01/01 14:17:55;;;;;;;11.47;5.30;;;;;;;;;;5031984;28;20197;-61
2022/01/01 14:20:22;;;;;;;13.27;5.73;;;;;;;;;;5032582;28;20204;-64
2022/01/01 14:22:48;;;;;;;9.27;5.00;;;;;;;;;;5032044;28;20232;-62
2022/01/01 14:25:14;;;;;;;10.73;4.70;;;;;;;;;;5032008;28;20567;-62
2022/01/01 14:27:40;;;;;;;12.50;5.33;;;;;;;;;;5031787;28;20320;-62
2022/01/01 14:30:07;;;;;;;9.87;4.63;;;;;;;;;;5032017;28;20197;-65